Terminal Aerodrome Forecast
Issued by NWS

Home | Current Version | Previous Version | Text Only | Print | Product List | Glossary On
Versions: 1 2 3 4 5 6 7 8 9 10 11 12 13 14 15 16 17 18 19 20 21
000
FTUS41 KPBZ 010705 AAA
TAFFKL
TAF AMD
KFKL 010705Z 0107/0206 00000KT 4SM BR SKC
      TEMPO 0107/0111 1/4SM FG BKN004
     FM011400 26005KT P6SM SCT035
      AMD LTD TO CLD VIS AND WIND=

USA.gov is the U.S. government's official web portal to all federal, state and local government web resources and services.